createdAt,value
2024-05-09T00:01:37.936Z,6.22
2024-05-09T00:04:08.222Z,4.85
2024-05-09T00:06:41.124Z,5.78
2024-05-09T00:09:11.637Z,5.45
2024-05-09T00:11:41.606Z,6.65
2024-05-09T00:14:11.511Z,4.85
2024-05-09T00:16:41.401Z,5.22
2024-05-09T00:19:11.570Z,5.88
2024-05-09T00:21:46.770Z,5.43
2024-05-09T00:24:16.626Z,7.13
2024-05-09T00:26:46.430Z,5.63
2024-05-09T00:29:16.234Z,6.68
2024-05-09T00:31:46.119Z,7.45
2024-05-09T00:34:16.162Z,6.10
2024-05-09T00:36:48.597Z,6.30
2024-05-09T00:39:18.456Z,4.07
2024-05-09T00:41:48.270Z,4.90
2024-05-09T00:44:18.544Z,4.43
2024-05-09T00:46:48.384Z,5.20
2024-05-09T00:49:18.410Z,4.43
2024-05-09T00:51:51.213Z,5.32
2024-05-09T00:54:21.874Z,6.43
2024-05-09T00:56:52.691Z,4.45
2024-05-09T00:59:23.303Z,7.22
2024-05-09T01:01:53.520Z,5.80
2024-05-09T01:04:23.624Z,7.15
2024-05-09T01:06:56.134Z,8.10
2024-05-09T01:09:26.048Z,5.57
2024-05-09T01:11:55.981Z,5.15
2024-05-09T01:14:25.966Z,4.90
2024-05-09T01:16:55.976Z,5.50
2024-05-09T01:19:30.766Z,4.55
2024-05-09T01:22:04.590Z,7.15
2024-05-09T01:24:36.958Z,4.75
2024-05-09T01:27:10.015Z,5.30
2024-05-09T01:29:39.861Z,5.00
2024-05-09T01:32:10.020Z,5.18
2024-05-09T01:34:39.891Z,6.20
2024-05-09T01:37:09.688Z,6.57
2024-05-09T01:39:42.133Z,5.88
2024-05-09T01:42:12.003Z,4.85
2024-05-09T01:44:43.499Z,5.50
2024-05-09T01:47:13.422Z,5.70
2024-05-09T01:49:43.928Z,5.63
2024-05-09T01:52:13.903Z,4.60
2024-05-09T01:54:46.423Z,4.80
2024-05-09T01:57:16.288Z,4.85
2024-05-09T01:59:46.215Z,4.70
2024-05-09T02:02:16.327Z,5.28
2024-05-09T02:04:50.145Z,5.90
2024-05-09T02:07:20.302Z,5.15
2024-05-09T02:09:55.419Z,5.63
2024-05-09T02:12:25.501Z,7.68
2024-05-09T02:14:55.375Z,6.53
2024-05-09T02:19:55.477Z,5.25
2024-05-09T02:22:25.691Z,5.13
2024-05-09T02:24:58.451Z,4.60
2024-05-09T02:27:28.611Z,5.28
2024-05-09T02:29:58.803Z,5.20
2024-05-09T02:32:29.177Z,6.03
2024-05-09T02:34:59.756Z,4.82
2024-05-09T02:37:27.329Z,4.97
2024-05-09T02:40:00.266Z,5.20
2024-05-09T02:42:27.821Z,5.93
2024-05-09T02:44:57.611Z,5.68
2024-05-09T02:49:55.017Z,6.10
2024-05-09T02:52:22.244Z,4.40
2024-05-09T02:54:52.028Z,5.20
2024-05-09T02:59:51.399Z,6.72
2024-05-09T03:02:18.744Z,4.35
2024-05-09T03:04:48.771Z,4.57
2024-05-09T03:07:17.817Z,4.78
2024-05-09T03:09:49.930Z,4.75
2024-05-09T03:12:17.116Z,4.40
2024-05-09T03:14:52.657Z,5.38
2024-05-09T03:17:20.032Z,5.47
2024-05-09T03:19:49.900Z,6.97
2024-05-09T03:24:46.690Z,5.50
2024-05-09T03:27:13.923Z,5.28
2024-05-09T03:29:45.043Z,5.65
2024-05-09T03:32:14.917Z,4.85
2024-05-09T03:34:44.900Z,4.32
2024-05-09T03:37:14.734Z,6.22
2024-05-09T03:39:44.519Z,4.53
2024-05-09T03:44:43.835Z,5.70
2024-05-09T03:49:43.388Z,5.03
2024-05-09T03:52:13.221Z,5.40
2024-05-09T03:57:14.992Z,6.32
2024-05-09T03:59:42.302Z,5.72
2024-05-09T04:02:12.189Z,5.13
2024-05-09T04:04:45.106Z,5.70
2024-05-09T04:07:15.029Z,7.00
2024-05-09T04:12:12.068Z,4.45
2024-05-09T04:14:39.575Z,5.53
2024-05-09T04:17:09.426Z,5.18
2024-05-09T04:19:36.726Z,4.60
2024-05-09T04:22:09.961Z,5.45
2024-05-09T04:24:37.201Z,5.53
2024-05-09T04:27:07.358Z,4.88
2024-05-09T04:29:37.481Z,3.85
2024-05-09T04:32:07.899Z,4.05
2024-05-09T04:34:35.985Z,5.40
2024-05-09T04:37:08.500Z,5.50
2024-05-09T04:39:35.727Z,4.32
2024-05-09T04:42:05.775Z,3.90
2024-05-09T04:44:33.278Z,4.00
2024-05-09T04:47:03.193Z,5.60
2024-05-09T04:49:30.584Z,7.15
2024-05-09T04:52:00.505Z,4.93
2024-05-09T04:54:36.035Z,5.47
2024-05-09T04:57:06.724Z,4.63
2024-05-09T04:59:34.054Z,5.55
2024-05-09T05:02:03.997Z,6.88
2024-05-09T05:04:31.543Z,5.43
2024-05-09T05:07:02.908Z,6.43
2024-05-09T05:09:33.107Z,7.13
2024-05-09T05:12:12.923Z,6.80
2024-05-09T05:14:40.326Z,9.13
2024-05-09T05:17:10.239Z,5.78
2024-05-09T05:19:37.548Z,4.03
2024-05-09T05:22:07.727Z,7.50
2024-05-09T05:24:37.573Z,4.55
2024-05-09T05:27:07.782Z,11.15
2024-05-09T05:29:35.206Z,15.65
2024-05-09T05:32:05.193Z,30.20
2024-05-09T05:34:32.795Z,38.25
2024-05-09T05:37:02.648Z,41.13
2024-05-09T05:39:29.919Z,27.13
2024-05-09T05:42:02.301Z,18.33
2024-05-09T05:44:29.653Z,19.15
2024-05-09T05:46:59.613Z,15.48
2024-05-09T05:49:27.275Z,19.70
2024-05-09T05:51:57.088Z,19.60
2024-05-09T05:54:24.302Z,18.92
2024-05-09T05:56:54.306Z,18.30
2024-05-09T05:59:29.318Z,15.55
2024-05-09T06:01:56.617Z,7.47
2024-05-09T06:04:26.526Z,5.63
2024-05-09T06:06:53.839Z,10.93
2024-05-09T06:09:23.603Z,13.10
2024-05-09T06:11:50.961Z,14.65
2024-05-09T06:14:20.843Z,14.52
2024-05-09T06:16:50.756Z,13.43
2024-05-09T06:19:21.919Z,10.40
2024-05-09T06:21:51.818Z,13.05
2024-05-09T06:24:19.133Z,13.13
2024-05-09T06:26:49.077Z,11.82
2024-05-09T06:29:16.397Z,13.13
2024-05-09T06:31:46.883Z,9.43
2024-05-09T06:34:18.963Z,9.50
2024-05-09T06:36:48.905Z,5.63
2024-05-09T06:39:16.189Z,4.75
2024-05-09T06:41:46.020Z,7.93
2024-05-09T06:44:13.304Z,9.10
2024-05-09T06:46:43.198Z,5.13
2024-05-09T06:49:12.200Z,4.88
2024-05-09T06:51:44.856Z,7.25
2024-05-09T06:54:12.165Z,6.10
2024-05-09T06:56:45.057Z,6.05
2024-05-09T06:59:12.579Z,5.13
2024-05-09T07:01:42.551Z,6.50
2024-05-09T07:04:09.936Z,8.80
2024-05-09T07:06:39.828Z,9.30
2024-05-09T07:09:09.764Z,9.20
2024-05-09T07:11:40.025Z,7.32
2024-05-09T07:14:07.447Z,6.00
2024-05-09T07:16:37.342Z,9.50
2024-05-09T07:19:04.767Z,9.23
2024-05-09T07:21:34.894Z,9.50
2024-05-09T07:24:02.155Z,8.38
2024-05-09T07:26:34.576Z,10.98
2024-05-09T07:29:01.874Z,7.03
2024-05-09T07:31:31.806Z,5.40
2024-05-09T07:34:00.661Z,6.50
2024-05-09T07:36:30.554Z,5.53
2024-05-09T07:38:57.767Z,4.22
2024-05-09T07:41:27.677Z,9.60
2024-05-09T07:43:57.638Z,7.82
2024-05-09T07:47:36.491Z,5.80
2024-05-09T07:50:55.837Z,4.65
2024-05-09T07:54:37.364Z,3.97
2024-05-09T07:57:05.340Z,5.53
2024-05-09T07:59:38.122Z,3.80
2024-05-09T08:02:05.882Z,6.88
2024-05-09T08:04:35.988Z,2.58
2024-05-09T08:07:03.280Z,5.22
2024-05-09T08:09:33.875Z,5.78
2024-05-09T08:12:01.916Z,3.97
2024-05-09T08:14:31.716Z,5.95
2024-05-09T08:17:01.539Z,6.03
2024-05-09T08:19:31.452Z,3.65
2024-05-09T08:21:58.753Z,4.63
2024-05-09T08:24:28.671Z,4.63
2024-05-09T08:26:55.974Z,8.45
2024-05-09T08:29:25.867Z,4.70
2024-05-09T08:31:56.553Z,4.75
2024-05-09T08:34:29.273Z,5.35
2024-05-09T08:36:59.697Z,4.10
2024-05-09T08:39:31.455Z,7.95
2024-05-09T08:41:58.744Z,2.25
2024-05-09T08:44:28.554Z,3.80
2024-05-09T08:46:56.588Z,7.07
2024-05-09T08:49:29.697Z,3.33
2024-05-09T08:51:56.988Z,1.52
2024-05-09T08:54:26.884Z,3.83
2024-05-09T08:56:54.299Z,6.50
2024-05-09T08:59:30.143Z,3.65
2024-05-09T09:01:58.288Z,4.85
2024-05-09T09:04:31.395Z,3.15
2024-05-09T09:07:00.374Z,5.93
2024-05-09T09:09:32.335Z,2.78
2024-05-09T09:11:59.593Z,4.22
2024-05-09T09:14:29.424Z,2.88
2024-05-09T09:16:56.633Z,3.28
2024-05-09T09:19:26.587Z,4.45
2024-05-09T09:21:56.491Z,6.13
2024-05-09T09:24:26.337Z,4.07
2024-05-09T09:26:53.548Z,3.33
2024-05-09T09:29:23.708Z,6.18
2024-05-09T09:31:58.733Z,10.30
2024-05-09T09:34:31.338Z,3.78
2024-05-09T09:37:04.738Z,3.63
2024-05-09T09:39:35.937Z,4.25
2024-05-09T09:42:04.363Z,4.25
2024-05-09T09:44:37.363Z,3.25
2024-05-09T09:47:07.021Z,4.55
2024-05-09T09:49:39.328Z,3.80
2024-05-09T09:52:11.266Z,4.00
2024-05-09T09:54:42.265Z,3.95
2024-05-09T09:57:09.562Z,4.00
2024-05-09T09:59:43.400Z,4.38
2024-05-09T10:02:10.921Z,8.68
2024-05-09T10:04:41.074Z,6.30
2024-05-09T10:07:12.671Z,6.03
2024-05-09T10:09:42.645Z,9.18
2024-05-09T10:12:10.733Z,4.82
2024-05-09T10:14:48.259Z,3.60
2024-05-09T10:17:15.745Z,4.88
2024-05-09T10:19:45.774Z,3.03
2024-05-09T10:22:27.697Z,4.63
2024-05-09T10:25:06.409Z,3.60
2024-05-09T10:27:34.058Z,2.83
2024-05-09T10:30:11.367Z,2.50
2024-05-09T10:32:42.023Z,3.17
2024-05-09T10:35:15.116Z,2.30
2024-05-09T10:37:46.386Z,3.53
2024-05-09T10:40:25.917Z,2.60
2024-05-09T10:42:57.426Z,2.45
2024-05-09T10:45:27.453Z,2.30
2024-05-09T10:47:55.371Z,2.63
2024-05-09T10:50:28.927Z,2.53
2024-05-09T10:53:03.074Z,4.22
2024-05-09T10:55:32.990Z,2.72
2024-05-09T10:58:00.341Z,3.67
2024-05-09T11:00:36.357Z,4.28
2024-05-09T11:03:04.419Z,3.42
2024-05-09T11:05:34.890Z,2.58
2024-05-09T11:08:05.660Z,2.13
2024-05-09T11:10:35.642Z,3.17
2024-05-09T11:13:02.970Z,3.25
2024-05-09T11:15:41.632Z,2.63
2024-05-09T11:18:24.232Z,3.78
2024-05-09T11:20:55.384Z,3.75
2024-05-09T11:23:27.302Z,2.97
2024-05-09T11:25:58.227Z,3.65
2024-05-09T11:28:28.587Z,4.72
2024-05-09T11:31:10.029Z,4.28
2024-05-09T11:33:38.218Z,4.30
2024-05-09T11:36:09.354Z,2.55
2024-05-09T11:38:39.308Z,2.10
2024-05-09T11:41:09.362Z,2.15
2024-05-09T11:43:36.562Z,2.50
2024-05-09T11:46:06.586Z,7.18
2024-05-09T11:48:33.997Z,2.10
2024-05-09T11:51:03.993Z,3.67
2024-05-09T11:53:31.193Z,2.72
2024-05-09T11:56:03.655Z,3.30
2024-05-09T11:58:34.350Z,2.03
2024-05-09T12:01:04.613Z,4.32
2024-05-09T12:03:32.294Z,3.83
2024-05-09T12:06:02.339Z,2.33
2024-05-09T12:08:29.986Z,3.05
2024-05-09T12:11:00.047Z,2.15
2024-05-09T12:13:30.119Z,2.85
2024-05-09T12:15:59.944Z,3.13
2024-05-09T12:18:27.239Z,2.55
2024-05-09T12:20:57.011Z,1.90
2024-05-09T12:23:24.252Z,2.25
2024-05-09T12:25:54.107Z,3.92
2024-05-09T12:28:21.957Z,2.42
2024-05-09T12:30:54.451Z,2.42
2024-05-09T12:33:21.941Z,2.10
2024-05-09T12:35:51.858Z,2.30
2024-05-09T12:38:19.040Z,1.88
2024-05-09T12:40:48.877Z,2.63
2024-05-09T12:43:16.251Z,3.03
2024-05-09T12:45:46.290Z,3.08
2024-05-09T12:48:16.440Z,3.08
2024-05-09T12:50:46.446Z,4.30
2024-05-09T12:53:13.833Z,2.30
2024-05-09T12:55:53.128Z,2.05
2024-05-09T12:58:26.979Z,3.53
2024-05-09T13:00:54.423Z,2.40
2024-05-09T13:03:26.936Z,2.33
2024-05-09T13:05:54.877Z,2.30
2024-05-09T13:08:25.110Z,3.00
2024-05-09T13:10:52.404Z,3.03
2024-05-09T13:13:22.259Z,1.70
2024-05-09T13:15:49.606Z,2.05
2024-05-09T13:18:19.633Z,3.70
2024-05-09T13:20:49.471Z,1.60
2024-05-09T13:23:19.296Z,3.50
2024-05-09T13:25:46.521Z,2.42
2024-05-09T13:28:16.661Z,3.63
2024-05-09T13:30:44.281Z,1.90
2024-05-09T13:33:14.984Z,2.58
2024-05-09T13:35:47.155Z,2.95
2024-05-09T13:38:22.808Z,2.92
2024-05-09T13:40:50.855Z,2.50
2024-05-09T13:43:22.042Z,1.25
2024-05-09T13:45:49.903Z,2.78
2024-05-09T13:48:20.117Z,2.10
2024-05-09T13:50:47.603Z,3.08
2024-05-09T13:53:17.618Z,3.03
2024-05-09T13:55:47.757Z,4.20
2024-05-09T13:58:17.857Z,4.22
2024-05-09T14:00:48.806Z,1.85
2024-05-09T14:03:20.908Z,2.55
2024-05-09T14:05:50.896Z,2.72
2024-05-09T14:08:22.735Z,3.60
2024-05-09T14:10:53.750Z,2.63
2024-05-09T14:13:23.723Z,3.05
2024-05-09T14:15:51.278Z,3.17
2024-05-09T14:18:21.520Z,2.20
2024-05-09T14:20:48.763Z,2.10
2024-05-09T14:23:20.827Z,4.10
2024-05-09T14:25:51.968Z,3.40
2024-05-09T14:28:26.981Z,4.38
2024-05-09T14:30:56.512Z,2.90
2024-05-09T14:33:27.431Z,2.22
2024-05-09T14:35:54.906Z,3.08
2024-05-09T14:38:24.827Z,2.60
2024-05-09T14:40:52.133Z,1.98
2024-05-09T14:43:24.844Z,2.95
2024-05-09T14:45:53.343Z,3.20
2024-05-09T14:48:23.275Z,2.58
2024-05-09T14:50:50.544Z,9.45
2024-05-09T14:53:20.368Z,1.92
2024-05-09T14:55:49.581Z,5.22
2024-05-09T14:58:19.737Z,2.97
2024-05-09T15:00:51.332Z,2.78
2024-05-09T15:03:22.638Z,2.35
2024-05-09T15:05:51.175Z,2.58
2024-05-09T15:08:21.925Z,3.38
2024-05-09T15:10:50.263Z,2.22
2024-05-09T15:13:20.990Z,2.90
2024-05-09T15:15:51.075Z,2.05
2024-05-09T15:18:21.145Z,2.33
2024-05-09T15:20:48.941Z,2.13
2024-05-09T15:23:19.009Z,3.97
2024-05-09T15:25:46.422Z,2.85
2024-05-09T15:28:16.619Z,3.30
2024-05-09T15:30:46.228Z,2.70
2024-05-09T15:33:20.048Z,3.15
2024-05-09T15:35:47.618Z,4.55
2024-05-09T15:38:18.714Z,2.40
2024-05-09T15:40:46.228Z,2.13
2024-05-09T15:43:16.394Z,3.67
2024-05-09T15:45:43.724Z,3.00
2024-05-09T15:48:14.409Z,3.13
2024-05-09T15:50:44.586Z,3.60
2024-05-09T15:53:15.243Z,1.90
2024-05-09T15:55:45.337Z,2.80
2024-05-09T15:58:13.506Z,3.38
2024-05-09T16:00:46.337Z,4.95
2024-05-09T16:03:15.663Z,3.90
2024-05-09T16:05:49.191Z,2.50
2024-05-09T16:08:16.882Z,3.10
2024-05-09T16:10:48.107Z,2.55
2024-05-09T16:13:16.506Z,3.13
2024-05-09T16:15:47.097Z,3.20
2024-05-09T16:18:14.529Z,2.90
2024-05-09T16:20:46.415Z,3.25
2024-05-09T16:23:18.238Z,2.50
2024-05-09T16:25:48.528Z,5.22
2024-05-09T16:28:18.953Z,2.33
2024-05-09T16:30:46.474Z,3.90
2024-05-09T16:33:19.462Z,1.83
2024-05-09T16:35:47.323Z,2.85
2024-05-09T16:38:17.119Z,7.05
2024-05-09T16:40:48.031Z,4.03
2024-05-09T16:43:18.060Z,2.35
2024-05-09T16:45:45.357Z,2.70
2024-05-09T16:48:16.496Z,3.35
2024-05-09T16:50:44.140Z,3.85
2024-05-09T16:53:17.332Z,4.50
2024-05-09T16:55:47.131Z,3.13
2024-05-09T16:58:17.227Z,1.95
2024-05-09T17:00:44.916Z,3.28
2024-05-09T17:03:17.020Z,6.82
2024-05-09T17:05:46.055Z,2.85
2024-05-09T17:08:21.277Z,2.38
2024-05-09T17:10:51.310Z,3.00
2024-05-09T17:13:22.635Z,2.67
2024-05-09T17:15:52.951Z,2.65
2024-05-09T17:18:20.462Z,2.50
2024-05-09T17:20:52.424Z,2.30
2024-05-09T17:23:19.673Z,3.03
2024-05-09T17:25:49.518Z,2.90
2024-05-09T17:28:19.526Z,2.00
2024-05-09T17:30:49.663Z,3.00
2024-05-09T17:33:17.091Z,4.65
2024-05-09T17:35:50.388Z,2.10
2024-05-09T17:38:18.061Z,3.08
2024-05-09T17:40:47.984Z,3.00
2024-05-09T17:43:15.410Z,4.35
2024-05-09T17:45:48.082Z,4.60
2024-05-09T17:48:15.685Z,6.20
2024-05-09T17:50:45.722Z,2.47
2024-05-09T17:53:12.975Z,3.20
2024-05-09T17:55:43.195Z,2.00
2024-05-09T17:58:12.406Z,3.13
2024-05-09T18:00:42.984Z,2.58
2024-05-09T18:03:13.956Z,2.65
2024-05-09T18:05:45.252Z,2.05
2024-05-09T18:08:13.545Z,3.17
2024-05-09T18:10:44.354Z,3.53
2024-05-09T18:13:12.724Z,3.08
2024-05-09T18:15:42.833Z,2.60
2024-05-09T18:18:13.393Z,4.20
2024-05-09T18:20:45.717Z,4.72
2024-05-09T18:23:16.368Z,2.97
2024-05-09T18:25:48.264Z,3.15
2024-05-09T18:28:16.963Z,3.78
2024-05-09T18:33:17.294Z,3.85
2024-05-09T18:35:48.792Z,3.05
2024-05-09T18:38:16.168Z,4.00
2024-05-09T18:40:48.880Z,3.17
2024-05-09T18:43:17.310Z,4.40
2024-05-09T18:45:47.747Z,2.65
2024-05-09T18:48:17.993Z,4.13
2024-05-09T18:50:48.126Z,3.78
2024-05-09T18:53:16.162Z,3.15
2024-05-09T18:55:46.084Z,2.80
2024-05-09T18:58:13.495Z,4.53
2024-05-09T19:00:46.005Z,2.92
2024-05-09T19:03:18.587Z,3.92
2024-05-09T19:05:48.827Z,3.40
2024-05-09T19:08:16.362Z,4.28
2024-05-09T19:10:46.916Z,4.13
2024-05-09T19:13:14.982Z,5.22
2024-05-09T19:15:45.407Z,3.47
2024-05-09T19:18:13.925Z,4.90
2024-05-09T19:20:47.286Z,3.95
2024-05-09T19:23:14.562Z,4.40
2024-05-09T19:25:44.412Z,4.25
2024-05-09T19:28:11.790Z,5.32
2024-05-09T19:30:42.917Z,2.67
2024-05-09T19:33:12.752Z,5.80
2024-05-09T19:35:46.463Z,2.88
2024-05-09T19:38:13.933Z,2.72
2024-05-09T19:40:43.762Z,2.97
2024-05-09T19:43:11.226Z,4.00
2024-05-09T19:45:43.784Z,7.80
2024-05-09T19:48:11.550Z,4.03
2024-05-09T19:50:44.287Z,3.83
2024-05-09T19:53:15.321Z,3.70
2024-05-09T19:55:45.651Z,4.35
2024-05-09T19:58:13.357Z,4.20
2024-05-09T20:00:44.465Z,4.82
2024-05-09T20:03:13.352Z,4.68
2024-05-09T20:05:45.516Z,4.63
2024-05-09T20:08:16.764Z,3.40
2024-05-09T20:10:46.847Z,3.72
2024-05-09T20:13:14.843Z,4.05
2024-05-09T20:15:44.782Z,4.47
2024-05-09T20:18:12.866Z,4.97
2024-05-09T20:20:44.682Z,3.85
2024-05-09T20:23:15.838Z,3.38
2024-05-09T20:25:45.997Z,3.17
2024-05-09T20:28:13.286Z,3.72
2024-05-09T20:30:43.254Z,4.38
2024-05-09T20:33:11.937Z,5.43
2024-05-09T20:35:41.761Z,3.38
2024-05-09T20:38:08.991Z,2.83
2024-05-09T20:40:41.574Z,4.10
2024-05-09T20:43:10.328Z,3.53
2024-05-09T20:45:41.141Z,3.58
2024-05-09T20:48:09.884Z,4.85
2024-05-09T20:50:42.108Z,4.00
2024-05-09T20:53:12.165Z,3.92
2024-05-09T20:55:45.869Z,3.67
2024-05-09T20:58:13.627Z,4.53
2024-05-09T21:00:45.639Z,3.60
2024-05-09T21:03:15.820Z,4.13
2024-05-09T21:05:47.414Z,3.40
2024-05-09T21:08:15.404Z,5.50
2024-05-09T21:10:48.116Z,3.65
2024-05-09T21:13:15.512Z,4.70
2024-05-09T21:15:45.554Z,5.65
2024-05-09T21:18:12.972Z,4.72
2024-05-09T21:20:42.823Z,4.30
2024-05-09T21:23:10.092Z,5.50
2024-05-09T21:25:39.934Z,4.25
2024-05-09T21:28:09.803Z,3.83
2024-05-09T21:30:42.631Z,4.65
2024-05-09T21:33:12.976Z,3.47
2024-05-09T21:35:44.855Z,3.83
2024-05-09T21:38:14.120Z,4.28
2024-05-09T21:40:44.965Z,3.95
2024-05-09T21:43:15.411Z,3.47
2024-05-09T21:45:45.625Z,4.95
2024-05-09T21:48:13.738Z,3.28
2024-05-09T21:50:43.812Z,5.68
2024-05-09T21:53:11.729Z,3.22
2024-05-09T21:55:41.946Z,3.13
2024-05-09T21:58:10.521Z,4.75
2024-05-09T22:00:45.582Z,4.45
2024-05-09T22:03:13.173Z,3.58
2024-05-09T22:05:45.028Z,5.53
2024-05-09T22:08:12.778Z,4.47
2024-05-09T22:10:42.692Z,5.75
2024-05-09T22:13:10.284Z,5.43
2024-05-09T22:15:42.999Z,5.28
2024-05-09T22:18:11.338Z,4.10
2024-05-09T22:20:45.357Z,3.30
2024-05-09T22:23:14.998Z,3.63
2024-05-09T22:25:45.731Z,3.95
2024-05-09T22:28:15.821Z,4.45
2024-05-09T22:30:50.747Z,3.75
2024-05-09T22:33:18.776Z,3.75
2024-05-09T22:35:51.395Z,3.85
2024-05-09T22:38:19.339Z,3.88
2024-05-09T22:40:50.218Z,5.50
2024-05-09T22:43:21.066Z,5.28
2024-05-09T22:45:56.773Z,4.03
2024-05-09T22:48:25.459Z,5.30
2024-05-09T22:50:56.811Z,3.47
2024-05-09T22:53:28.632Z,3.30
2024-05-09T22:55:58.837Z,4.10
2024-05-09T22:58:26.199Z,4.00
2024-05-09T23:00:58.758Z,4.50
2024-05-09T23:03:26.346Z,5.43
2024-05-09T23:05:56.416Z,3.70
2024-05-09T23:08:23.715Z,4.47
2024-05-09T23:10:53.806Z,3.72
2024-05-09T23:13:21.285Z,5.22
2024-05-09T23:15:51.331Z,4.60
2024-05-09T23:18:21.325Z,3.55
2024-05-09T23:20:51.863Z,5.78
2024-05-09T23:23:19.145Z,4.15
2024-05-09T23:25:48.972Z,3.83
2024-05-09T23:28:16.282Z,5.18
2024-05-09T23:30:46.156Z,6.18
2024-05-09T23:33:14.315Z,6.10
2024-05-09T23:35:47.176Z,5.38
2024-05-09T23:38:14.542Z,6.53
2024-05-09T23:40:44.407Z,5.25
2024-05-09T23:43:12.851Z,5.38
2024-05-09T23:45:43.636Z,4.80
2024-05-09T23:48:11.460Z,4.60
2024-05-09T23:50:41.839Z,5.22
2024-05-09T23:53:14.239Z,5.47
2024-05-09T23:55:44.141Z,5.28
2024-05-09T23:58:11.872Z,4.70
